To NAV CANADA Home Page Login to a new session Search on AWWS site Feedback and Comments Disclaimer Vers la page française équivalente Tips FAQ What's new on the site To the Forecasts and Observations / NOTAM section To "File a Flight Plan" website Publications and other links Update of the User's profile FIC Telephone Numbers My Weather Data Folder Route Weather Data Regional Weather Data Local Weather Data To the Forecasts and Observations / NOTAM section
Request Generated 05/29/2016 at 01:51:15 UTC . Weather information available at that time is displayed.

METAR/TAF

If you find any discrepancies between the coded METAR/TAF and the plain language METAR/TAF please use the coded METAR/TAF. LWIS bulletins are not decoded in plain language.

VANCOUVER INTL/BC    (show WxCam)

SPECI CYVR 290139Z 16015KT 10SM FEW009 SCT060 OVC087 14/11 A2994 RMK SF1SC3AS4 SLP139=
SPECI
LOCATION
CYVR - VANCOUVER INTL/BC
DATE - TIME
29 MAY 2016 - 0139 UTC
WIND
160 TRUE @ 15  KNOTS
VISIBILITY
10 STAT.  MILES
RUNWAY VISUAL RANGE
WEATHER
CLOUDINESS
FEW CLOUDS (1/8 - 2/8) 900  FT
SCATTERED CLOUDS (3/8 - 4/8) 6000  FT
OVERCAST 8700  FT
TEMP / DEWPOINT
14 C / 11 C
ALTIMETER
29.94 IN HG
RECENT WEATHER
WIND SHEAR

METAR CYVR 290100Z 16016G23KT 10SM -SHRA FEW009 BKN043 OVC080 14/11 A2993 RMK SF2SC4AS2 CVCTV CLD EMBD SLP137=
METAR
LOCATION
CYVR - VANCOUVER INTL/BC
DATE - TIME
29 MAY 2016 - 0100 UTC
WIND
160 TRUE @ 16  KNOTS
GUSTS
23 KNOTS
VISIBILITY
10 STAT.  MILES
RUNWAY VISUAL RANGE
WEATHER
LIGHT RAIN SHOWER
CLOUDINESS
FEW CLOUDS (1/8 - 2/8) 900  FT
BROKEN CLOUDS (5/8 - 7/8) 4300  FT
OVERCAST 8000  FT
TEMP / DEWPOINT
14 C / 11 C
ALTIMETER
29.93 IN HG
RECENT WEATHER
WIND SHEAR

SPECI CYVR 290055Z 16016G22KT 10SM -SHRA FEW009 BKN042 OVC080 14/11 A2993 RMK SF2SC4AS2 SLP138=
SPECI
LOCATION
CYVR - VANCOUVER INTL/BC
DATE - TIME
29 MAY 2016 - 0055 UTC
WIND
160 TRUE @ 16  KNOTS
GUSTS
22 KNOTS
VISIBILITY
10 STAT.  MILES
RUNWAY VISUAL RANGE
WEATHER
LIGHT RAIN SHOWER
CLOUDINESS
FEW CLOUDS (1/8 - 2/8) 900  FT
BROKEN CLOUDS (5/8 - 7/8) 4200  FT
OVERCAST 8000  FT
TEMP / DEWPOINT
14 C / 11 C
ALTIMETER
29.93 IN HG
RECENT WEATHER
WIND SHEAR

METAR CYVR 290000Z 14015G21KT 10SM FEW009 BKN038 OVC070 14/11 A2994 RMK SF2SC4AS2 CVCTV CLD EMBD / SHS NW SLP140=
METAR
LOCATION
CYVR - VANCOUVER INTL/BC
DATE - TIME
29 MAY 2016 - 0000 UTC
WIND
140 TRUE @ 15  KNOTS
GUSTS
21 KNOTS
VISIBILITY
10 STAT.  MILES
RUNWAY VISUAL RANGE
WEATHER
CLOUDINESS
FEW CLOUDS (1/8 - 2/8) 900  FT
BROKEN CLOUDS (5/8 - 7/8) 3800  FT
OVERCAST 7000  FT
TEMP / DEWPOINT
14 C / 11 C
ALTIMETER
29.94 IN HG
RECENT WEATHER
WIND SHEAR

SPECI CYVR 282347Z 14014G21KT 10SM FEW009 BKN043 OVC070 14/11 A2995 RMK SF2SC4AC2 SLP142=
SPECI
LOCATION
CYVR - VANCOUVER INTL/BC
DATE - TIME
28 MAY 2016 - 2347 UTC
WIND
140 TRUE @ 14  KNOTS
GUSTS
21 KNOTS
VISIBILITY
10 STAT.  MILES
RUNWAY VISUAL RANGE
WEATHER
CLOUDINESS
FEW CLOUDS (1/8 - 2/8) 900  FT
BROKEN CLOUDS (5/8 - 7/8) 4300  FT
OVERCAST 7000  FT
TEMP / DEWPOINT
14 C / 11 C
ALTIMETER
29.95 IN HG
RECENT WEATHER
WIND SHEAR

METAR CYVR 282300Z 13013G18KT 10SM -SHRA FEW008 FEW015 BKN045 OVC070 13/11 A2995 RMK CF1SC1SC4AC2 CVCTV CLD EMBD SLP143=
METAR
LOCATION
CYVR - VANCOUVER INTL/BC
DATE - TIME
28 MAY 2016 - 2300 UTC
WIND
130 TRUE @ 13  KNOTS
GUSTS
18 KNOTS
VISIBILITY
10 STAT.  MILES
RUNWAY VISUAL RANGE
WEATHER
LIGHT RAIN SHOWER
CLOUDINESS
FEW CLOUDS (1/8 - 2/8) 800  FT
FEW CLOUDS (1/8 - 2/8) 1500  FT
BROKEN CLOUDS (5/8 - 7/8) 4500  FT
OVERCAST 7000  FT
TEMP / DEWPOINT
13 C / 11 C
ALTIMETER
29.95 IN HG
RECENT WEATHER
WIND SHEAR

TAF CYVR 282340Z 2900/3006 14012G22KT P6SM SCT008 OVC040 TEMPO 2900/2907 3SM -SHRA BR BKN006 OVC015 BECMG 2901/2903 VRB03KT FM290700 29005KT P6SM SCT020 SCT050 TEMPO 2907/2918 BKN020 FM291800 27010KT P6SM SCT030 RMK NXT FCST BY 290300Z=
TAF
LOCATION

CYVR - VANCOUVER INTL/BC
VALIDITY [UTC]
28 MAY - 2340 to
30 MAY - 0600
 
TIMES
[UTC]
WIND
[DEGREES TRUE]
VISIBILITY
[STAT. MILES]
WEATHER
CLOUDINESS
[FEET AGL]
 
29 MAY - 0000 to
29 MAY - 0700
140 @ 12 KNOTS
GUSTS 22 KNOTS
6+
NIL
800 SCATTERED
4000 OVERCAST
TEMPORARY CHANGES
29 MAY - 0000 to
29 MAY - 0700
 
3
LIGHT RAIN SHOWER
MIST
600 BROKEN
1500 OVERCAST
BECOMING
29 MAY - 0100 to
29 MAY - 0300
VARIABLE @ 3 KNOTS
 
 
 
 
29 MAY - 0700 to
29 MAY - 1800
290 @ 5 KNOTS
6+
NIL
2000 SCATTERED
5000 SCATTERED
TEMPORARY CHANGES
29 MAY - 0700 to
29 MAY - 1800
 
 
 
2000 BROKEN
 
29 MAY - 1800 to
30 MAY - 0600
270 @ 10 KNOTS
6+
NIL
3000 SCATTERED
REMARKS
THE NEXT FORECAST WILL BE ISSUED BY 0300 UTC ON DAY 29


Your time UTC time
Weather data provided by Environment Canada and NAV CANADA